Time;durP1;ratioP1;P1;durP2;ratioP2;P2;SDS_P1;SDS_P2;PMS_P1;PMS_P2;Temp;Humidity;BMP_temperature;BMP_pressure;BME280_temperature;BME280_humidity;BME280_pressure;Samples;Min_cycle;Max_cycle;Signal;HPM_P1;HPM_P2
2021/12/30 00:01:35;;;;;;;34.08;5.93;;;9.00;99.90;;;;;;5070656;28;20093;-67
2021/12/30 00:04:01;;;;;;;30.70;5.18;;;9.10;99.90;;;;;;5071721;28;20048;-64
2021/12/30 00:06:27;;;;;;;40.50;6.72;;;9.10;99.90;;;;;;5072165;28;20056;-66
2021/12/30 00:08:54;;;;;;;30.90;6.22;;;9.20;99.90;;;;;;5073143;28;20025;-65
2021/12/30 00:11:20;;;;;;;45.13;7.30;;;9.20;99.90;;;;;;5068281;28;20530;-68
2021/12/30 00:13:45;;;;;;;44.58;5.45;;;9.30;99.90;;;;;;5072577;28;20032;-66
2021/12/30 00:16:12;;;;;;;38.15;6.03;;;9.40;99.90;;;;;;5070992;28;20036;-66
2021/12/30 00:18:39;;;;;;;39.75;6.97;;;9.50;99.90;;;;;;5071649;28;20029;-67
2021/12/30 00:21:05;;;;;;;40.97;5.55;;;9.50;99.90;;;;;;5072517;28;20145;-68
2021/12/30 00:23:30;;;;;;;34.88;4.90;;;9.60;99.90;;;;;;5070983;28;20024;-67
2021/12/30 00:25:56;;;;;;;40.95;6.88;;;9.60;99.90;;;;;;5072295;28;20032;-64
2021/12/30 00:28:23;;;;;;;37.22;5.82;;;9.60;99.90;;;;;;5072381;28;20032;-66
2021/12/30 00:30:50;;;;;;;28.77;5.30;;;9.60;99.90;;;;;;5068398;28;20068;-66
2021/12/30 00:33:17;;;;;;;40.75;7.53;;;9.60;99.90;;;;;;5072203;28;20549;-64
2021/12/30 00:35:42;;;;;;;55.22;6.22;;;9.70;99.90;;;;;;5072259;28;20412;-67
2021/12/30 00:38:08;;;;;;;39.55;6.00;;;9.80;99.90;;;;;;5072104;28;20025;-65
2021/12/30 00:40:35;;;;;;;41.55;6.50;;;9.80;99.90;;;;;;5070219;28;20043;-65
2021/12/30 00:43:01;;;;;;;50.08;5.30;;;9.90;99.90;;;;;;5070582;28;20033;-65
2021/12/30 00:45:28;;;;;;;29.83;4.25;;;9.90;99.90;;;;;;5069207;28;20048;-63
2021/12/30 00:47:54;;;;;;;41.70;5.95;;;9.90;99.90;;;;;;5071602;28;20143;-69
2021/12/30 00:50:19;;;;;;;29.83;6.15;;;9.90;99.90;;;;;;5071601;28;20763;-65
2021/12/30 00:52:45;;;;;;;41.38;4.93;;;9.90;99.90;;;;;;5071642;28;20036;-65
2021/12/30 00:55:12;;;;;;;39.83;5.90;;;10.00;99.90;;;;;;5072144;28;20029;-65
2021/12/30 00:57:37;;;;;;;46.75;5.20;;;10.10;99.90;;;;;;5070776;28;20186;-67
2021/12/30 01:00:07;;;;;;;48.40;7.28;;;10.10;99.90;;;;;;5070212;28;20046;-66
2021/12/30 01:02:33;;;;;;;42.03;5.53;;;10.20;99.90;;;;;;5071063;28;20105;-68
2021/12/30 01:04:59;;;;;;;37.83;7.28;;;10.20;99.90;;;;;;5071986;28;20042;-64
2021/12/30 01:07:24;;;;;;;55.47;9.82;;;10.30;99.90;;;;;;5071229;28;20427;-66
2021/12/30 01:09:50;;;;;;;43.67;6.68;;;10.40;99.90;;;;;;5071759;28;20041;-66
2021/12/30 01:12:15;;;;;;;41.55;7.10;;;10.40;99.90;;;;;;5069212;28;20032;-68
2021/12/30 01:14:46;;;;;;;40.95;7.20;;;10.50;99.90;;;;;;5071266;28;20066;-66
2021/12/30 01:17:21;;;;;;;42.65;6.68;;;10.50;99.90;;;;;;5071623;28;20055;-66
2021/12/30 01:19:46;;;;;;;43.50;6.88;;;10.50;99.90;;;;;;5064240;28;20047;-66
2021/12/30 01:22:21;;;;;;;35.92;7.43;;;10.60;99.90;;;;;;5071019;28;20040;-68
2021/12/30 01:24:47;;;;;;;29.95;5.50;;;10.60;99.90;;;;;;5066483;28;20025;-67
2021/12/30 01:27:15;;;;;;;43.60;9.13;;;10.70;99.90;;;;;;5070707;28;20052;-66
2021/12/30 01:29:41;;;;;;;30.90;6.32;;;10.70;99.90;;;;;;5069441;28;20032;-68
2021/12/30 01:32:07;;;;;;;47.75;6.65;;;10.80;99.90;;;;;;5070089;28;20036;-64
2021/12/30 01:34:33;;;;;;;44.65;8.45;;;10.80;99.90;;;;;;5071220;28;20029;-64
2021/12/30 01:37:02;;;;;;;35.97;7.50;;;10.80;99.90;;;;;;5071679;28;20033;-68
2021/12/30 01:39:29;;;;;;;34.13;7.63;;;10.90;99.90;;;;;;5069600;28;20029;-65
2021/12/30 01:41:56;;;;;;;35.78;6.43;;;10.90;99.90;;;;;;5071315;28;20035;-65
2021/12/30 01:44:22;;;;;;;42.08;8.90;;;10.90;99.90;;;;;;5071030;28;20062;-65
2021/12/30 01:46:48;;;;;;;34.65;6.78;;;10.90;99.90;;;;;;5071529;28;20033;-69
2021/12/30 01:49:14;;;;;;;36.30;7.43;;;11.00;99.90;;;;;;5071134;28;20120;-68
2021/12/30 01:51:41;;;;;;;32.42;7.45;;;11.00;99.90;;;;;;5070660;28;20188;-66
2021/12/30 01:54:07;;;;;;;38.75;7.30;;;11.00;99.90;;;;;;5070802;28;20060;-65
2021/12/30 01:56:33;;;;;;;31.67;7.78;;;11.10;99.90;;;;;;5070572;28;20492;-65
2021/12/30 01:58:59;;;;;;;23.88;7.13;;;11.10;99.90;;;;;;5069265;28;20035;-65
2021/12/30 02:01:25;;;;;;;30.88;7.07;;;11.10;99.90;;;;;;5070469;28;20028;-68
2021/12/30 02:03:51;;;;;;;26.50;6.53;;;11.20;99.90;;;;;;5070521;28;20024;-67
2021/12/30 02:06:17;;;;;;;31.92;6.50;;;11.20;99.90;;;;;;5069944;28;20085;-66
2021/12/30 02:08:42;;;;;;;23.40;6.43;;;11.20;99.90;;;;;;5070597;28;20032;-65
2021/12/30 02:11:10;;;;;;;30.92;7.00;;;11.30;99.90;;;;;;5070452;28;20524;-65
2021/12/30 02:13:35;;;;;;;24.80;6.82;;;11.30;99.90;;;;;;5070184;28;20029;-65
2021/12/30 02:16:02;;;;;;;24.73;7.68;;;11.20;99.90;;;;;;5070490;28;20047;-65
2021/12/30 02:18:29;;;;;;;33.20;7.97;;;11.30;99.90;;;;;;5069625;28;20603;-65
2021/12/30 02:21:00;;;;;;;31.50;6.43;;;11.30;99.90;;;;;;5070274;28;20412;-65
2021/12/30 02:23:32;;;;;;;24.40;6.22;;;11.30;99.90;;;;;;5070054;28;20469;-68
2021/12/30 02:26:02;;;;;;;29.65;7.32;;;11.40;99.90;;;;;;5070356;28;20456;-66
2021/12/30 02:28:29;;;;;;;23.02;6.43;;;11.40;99.90;;;;;;5068216;28;20033;-65
2021/12/30 02:30:57;;;;;;;23.40;7.53;;;11.40;99.90;;;;;;5070202;28;20028;-66
2021/12/30 02:33:24;;;;;;;25.30;6.22;;;11.40;99.90;;;;;;5070280;28;20067;-69
2021/12/30 02:35:51;;;;;;;27.27;6.28;;;11.40;99.90;;;;;;5070600;28;20550;-64
2021/12/30 02:38:18;;;;;;;26.75;6.38;;;11.40;99.90;;;;;;5069913;28;20408;-68
2021/12/30 02:40:46;;;;;;;25.13;6.10;;;11.50;99.90;;;;;;5070104;28;20039;-65
2021/12/30 02:43:15;;;;;;;25.83;6.35;;;11.50;99.90;;;;;;5066589;28;20040;-66
2021/12/30 02:45:41;;;;;;;22.58;5.93;;;11.50;99.90;;;;;;5065698;28;20028;-65
2021/12/30 02:48:15;;;;;;;28.63;6.38;;;11.50;99.90;;;;;;5068543;28;20818;-64
2021/12/30 02:50:42;;;;;;;23.30;6.20;;;11.50;99.90;;;;;;5069607;28;20031;-65
2021/12/30 02:53:07;;;;;;;26.65;6.25;;;11.60;99.90;;;;;;5070048;28;20039;-65
2021/12/30 02:55:33;;;;;;;24.80;6.38;;;11.60;99.90;;;;;;5069873;28;20160;-67
2021/12/30 02:57:58;;;;;;;17.52;5.82;;;11.70;99.90;;;;;;5069110;28;20087;-65
2021/12/30 03:00:24;;;;;;;16.50;5.05;;;11.60;99.90;;;;;;5069108;28;20040;-68
2021/12/30 03:02:50;;;;;;;22.50;6.65;;;11.70;99.90;;;;;;5069782;28;20086;-65
2021/12/30 03:05:19;;;;;;;18.48;5.40;;;11.70;99.90;;;;;;5068449;28;20438;-65
2021/12/30 03:07:45;;;;;;;20.33;5.70;;;11.70;99.90;;;;;;5069810;28;20040;-69
2021/12/30 03:10:18;;;;;;;17.77;5.35;;;11.80;99.90;;;;;;5069158;28;20086;-67
2021/12/30 03:12:44;;;;;;;17.52;5.97;;;11.70;99.90;;;;;;5061835;28;20034;-67
2021/12/30 03:15:14;;;;;;;13.20;5.35;;;11.70;99.90;;;;;;5068392;28;20033;-65
2021/12/30 03:17:40;;;;;;;15.05;5.35;;;11.70;99.90;;;;;;5065759;28;20484;-66
2021/12/30 03:20:09;;;;;;;17.13;5.90;;;11.70;99.90;;;;;;5069257;28;20033;-65
2021/12/30 03:22:39;;;;;;;27.38;6.70;;;11.70;99.90;;;;;;5069229;28;20050;-65
2021/12/30 03:25:07;;;;;;;14.82;5.22;;;11.80;99.90;;;;;;5069850;28;20543;-65
2021/12/30 03:27:33;;;;;;;13.55;4.93;;;11.80;99.90;;;;;;5069090;28;20032;-65
2021/12/30 03:29:58;;;;;;;13.40;4.72;;;11.80;99.90;;;;;;5069134;28;20082;-70
2021/12/30 03:32:24;;;;;;;14.32;5.45;;;11.80;99.90;;;;;;5067527;28;20407;-66
2021/12/30 03:34:49;;;;;;;10.27;4.78;;;11.80;99.90;;;;;;5069454;28;20096;-65
2021/12/30 03:37:15;;;;;;;13.27;5.05;;;11.80;99.90;;;;;;5072709;28;20041;-65
2021/12/30 03:39:41;;;;;;;10.82;4.25;;;11.80;99.90;;;;;;5071875;28;20048;-67
2021/12/30 03:42:07;;;;;;;12.35;5.22;;;11.80;99.90;;;;;;5069392;28;20123;-65
2021/12/30 03:44:33;;;;;;;12.27;4.80;;;11.80;99.90;;;;;;5072058;28;20089;-66
2021/12/30 03:46:59;;;;;;;16.58;5.55;;;11.80;99.90;;;;;;5073807;28;20040;-64
2021/12/30 03:49:24;;;;;;;13.00;5.80;;;11.80;99.90;;;;;;5072919;28;20051;-65
2021/12/30 03:51:52;;;;;;;13.40;4.65;;;11.80;99.90;;;;;;5072727;28;20035;-65
2021/12/30 03:54:18;;;;;;;18.38;5.22;;;11.80;99.90;;;;;;5072945;28;20035;-65
2021/12/30 03:56:45;;;;;;;16.50;5.25;;;11.80;99.90;;;;;;5073002;28;20040;-69
2021/12/30 03:59:10;;;;;;;12.88;5.38;;;11.90;99.90;;;;;;5072704;28;20484;-65
2021/12/30 04:01:36;;;;;;;13.23;6.15;;;11.90;99.90;;;;;;5072557;28;20132;-65
2021/12/30 04:04:03;;;;;;;18.40;6.68;;;11.90;99.90;;;;;;5073111;28;20112;-65
2021/12/30 04:06:29;;;;;;;14.85;5.90;;;11.90;99.90;;;;;;5072488;28;20384;-65
2021/12/30 04:08:56;;;;;;;18.75;6.47;;;11.90;99.90;;;;;;5073190;28;20108;-67
2021/12/30 04:11:28;;;;;;;26.25;6.03;;;11.90;99.90;;;;;;5072114;28;20024;-65
2021/12/30 04:13:54;;;;;;;19.08;6.40;;;11.90;99.90;;;;;;5072969;28;20094;-65
2021/12/30 04:16:20;;;;;;;22.40;6.43;;;11.90;99.90;;;;;;5072018;28;20472;-65
2021/12/30 04:18:48;;;;;;;17.13;6.25;;;11.90;99.90;;;;;;5070848;28;20028;-65
2021/12/30 04:21:18;;;;;;;18.15;5.55;;;11.90;99.90;;;;;;5072683;28;20036;-65
2021/12/30 04:23:44;;;;;;;16.30;5.22;;;11.90;99.90;;;;;;5073126;28;20020;-66
2021/12/30 04:26:10;;;;;;;17.83;5.13;;;11.90;99.90;;;;;;5072939;28;20120;-68
2021/12/30 04:28:35;;;;;;;13.98;4.95;;;11.80;99.90;;;;;;5072267;28;20032;-67
2021/12/30 04:31:01;;;;;;;11.63;5.05;;;11.90;99.90;;;;;;5072547;28;20093;-65
2021/12/30 04:33:27;;;;;;;9.27;4.10;;;11.90;99.90;;;;;;5072060;28;20060;-65
2021/12/30 04:35:56;;;;;;;9.45;4.65;;;11.90;99.90;;;;;;5072441;28;20119;-67
2021/12/30 04:38:24;;;;;;;10.45;4.47;;;12.00;99.90;;;;;;5071676;28;20020;-65
2021/12/30 04:40:49;;;;;;;21.52;5.53;;;12.00;99.90;;;;;;5071980;28;20108;-65
2021/12/30 04:43:15;;;;;;;15.55;6.72;;;11.90;99.90;;;;;;5072515;28;20547;-65
2021/12/30 04:45:42;;;;;;;17.80;6.13;;;11.90;99.90;;;;;;5071774;28;20388;-68
2021/12/30 04:48:08;;;;;;;23.50;6.00;;;11.90;99.90;;;;;;5071154;28;20082;-67
2021/12/30 04:50:34;;;;;;;16.15;6.70;;;11.90;99.90;;;;;;5071885;28;20041;-67
2021/12/30 04:52:59;;;;;;;20.73;6.55;;;11.90;99.90;;;;;;5072100;28;20028;-66
2021/12/30 04:55:25;;;;;;;22.58;6.85;;;11.90;99.90;;;;;;5071657;28;20408;-64
2021/12/30 04:57:51;;;;;;;20.67;6.07;;;11.90;99.90;;;;;;5069601;28;20163;-65
2021/12/30 05:00:16;;;;;;;20.50;6.22;;;11.90;99.90;;;;;;5071950;28;20037;-65
2021/12/30 05:03:24;;;;;;;24.05;6.85;;;11.90;99.90;;;;;;5071610;28;20036;-66
2021/12/30 05:05:31;;;;;;;26.30;6.47;;;11.90;99.90;;;;;;5073867;28;20028;-65
2021/12/30 05:07:57;;;;;;;20.70;5.82;;;11.90;99.90;;;;;;5071635;28;20484;-65
2021/12/30 05:10:23;;;;;;;26.23;6.05;;;11.90;99.90;;;;;;5071296;28;20039;-67
2021/12/30 05:12:49;;;;;;;20.77;6.43;;;11.80;99.90;;;;;;5071645;28;20040;-69
2021/12/30 05:15:14;;;;;;;21.27;6.07;;;11.80;99.90;;;;;;5071934;28;20024;-64
2021/12/30 05:17:41;;;;;;;25.58;6.32;;;11.90;99.90;;;;;;5070956;28;20032;-65
2021/12/30 05:20:08;;;;;;;21.52;6.50;;;11.80;99.90;;;;;;5071614;28;20040;-68
2021/12/30 05:22:34;;;;;;;21.77;6.57;;;11.80;99.90;;;;;;5070818;28;20033;-66
2021/12/30 05:25:02;;;;;;;25.75;6.43;;;11.90;99.90;;;;;;5071925;28;20116;-66
2021/12/30 05:27:28;;;;;;;23.25;6.38;;;11.90;99.90;;;;;;5070719;28;20028;-65
2021/12/30 05:29:53;;;;;;;23.83;5.90;;;11.80;99.90;;;;;;5071202;28;20513;-67
2021/12/30 05:32:19;;;;;;;18.48;6.03;;;11.90;99.90;;;;;;5071288;28;20051;-64
2021/12/30 05:34:45;;;;;;;19.45;6.90;;;11.90;99.90;;;;;;5071712;28;20405;-65
2021/12/30 05:37:11;;;;;;;22.70;5.90;;;11.90;99.90;;;;;;5071293;28;20040;-68
2021/12/30 05:39:40;;;;;;;18.90;5.50;;;11.80;99.90;;;;;;5070730;28;20108;-66
2021/12/30 05:42:07;;;;;;;13.65;4.78;;;11.90;99.90;;;;;;5069671;28;20028;-68
2021/12/30 05:44:32;;;;;;;20.98;5.63;;;11.90;99.90;;;;;;5070651;28;20120;-66
2021/12/30 05:46:58;;;;;;;16.70;4.40;;;11.90;99.90;;;;;;5071264;28;20158;-64
2021/12/30 05:49:24;;;;;;;16.13;4.88;;;11.90;99.90;;;;;;5070196;28;20028;-64
2021/12/30 05:51:49;;;;;;;17.30;4.70;;;11.90;99.90;;;;;;5070728;28;20036;-66
2021/12/30 05:54:15;;;;;;;12.23;3.75;;;11.90;99.90;;;;;;5070925;28;20547;-68
2021/12/30 05:56:40;;;;;;;14.38;4.40;;;12.00;99.90;;;;;;5070120;28;20048;-66
2021/12/30 05:59:06;;;;;;;12.20;4.45;;;12.00;99.90;;;;;;5069666;28;20060;-65
2021/12/30 06:01:32;;;;;;;22.70;4.75;;;12.00;99.90;;;;;;5070387;28;20523;-68
2021/12/30 06:03:57;;;;;;;12.35;2.95;;;12.00;99.90;;;;;;5069254;28;20042;-65
2021/12/30 06:06:24;;;;;;;13.32;3.22;;;12.00;99.90;;;;;;5070301;28;20400;-65
2021/12/30 06:08:50;;;;;;;15.55;3.55;;;12.10;99.90;;;;;;5070417;28;20029;-64
2021/12/30 06:11:17;;;;;;;7.03;2.92;;;12.10;99.90;;;;;;5070258;28;20029;-68
2021/12/30 06:13:42;;;;;;;11.98;3.40;;;12.10;99.90;;;;;;5070403;28;20484;-67
2021/12/30 06:16:08;;;;;;;12.45;3.53;;;12.20;99.90;;;;;;5070512;28;20033;-65
2021/12/30 06:18:33;;;;;;;13.63;3.63;;;12.20;99.90;;;;;;5069726;28;20040;-65
2021/12/30 06:20:59;;;;;;;11.07;2.85;;;12.20;99.90;;;;;;5070521;28;20044;-65
2021/12/30 06:23:24;;;;;;;10.52;3.35;;;12.20;99.90;;;;;;5069901;28;20028;-65
2021/12/30 06:25:50;;;;;;;6.05;2.53;;;12.20;99.90;;;;;;5069166;28;20033;-65
2021/12/30 06:28:16;;;;;;;4.70;2.00;;;12.20;99.90;;;;;;5069996;28;20120;-65
2021/12/30 06:30:41;;;;;;;5.20;2.17;;;12.20;99.90;;;;;;5069766;28;20029;-67
2021/12/30 06:33:07;;;;;;;7.70;1.50;;;12.20;99.90;;;;;;5069708;28;20032;-64
2021/12/30 06:35:34;;;;;;;7.50;1.60;;;12.30;99.90;;;;;;5069333;28;20381;-66
2021/12/30 06:38:03;;;;;;;6.97;1.05;;;12.30;99.90;;;;;;5068640;28;20032;-67
2021/12/30 06:40:30;;;;;;;10.82;1.30;;;12.30;99.90;;;;;;5069412;28;20043;-65
2021/12/30 06:42:56;;;;;;;3.65;0.98;;;12.30;99.90;;;;;;5069601;28;20036;-64
2021/12/30 06:45:21;;;;;;;4.93;1.10;;;12.30;99.90;;;;;;5069737;28;20137;-65
2021/12/30 06:47:47;;;;;;;3.95;0.95;;;12.30;99.90;;;;;;5069729;28;20036;-67
2021/12/30 06:50:15;;;;;;;4.03;1.33;;;12.30;99.90;;;;;;5069736;28;20139;-67
2021/12/30 06:52:41;;;;;;;2.40;1.00;;;12.30;99.90;;;;;;5068256;28;20178;-66
2021/12/30 06:55:08;;;;;;;5.80;1.27;;;12.30;99.90;;;;;;5070008;28;20043;-66
2021/12/30 06:57:34;;;;;;;3.85;1.08;;;12.30;99.90;;;;;;5069283;28;20047;-65
2021/12/30 07:00:00;;;;;;;3.95;1.40;;;12.30;99.90;;;;;;5069333;28;20667;-65
2021/12/30 07:02:25;;;;;;;1.92;1.00;;;12.30;99.90;;;;;;5069650;28;20661;-66
2021/12/30 07:04:51;;;;;;;7.00;1.60;;;12.30;99.90;;;;;;5069770;28;20037;-65
2021/12/30 07:07:17;;;;;;;3.90;0.95;;;12.30;99.90;;;;;;5069922;28;20067;-65
2021/12/30 07:09:42;;;;;;;3.15;0.70;;;12.30;99.90;;;;;;5068786;28;20025;-65
2021/12/30 07:12:08;;;;;;;3.85;0.82;;;12.30;99.90;;;;;;5069090;28;20032;-67
2021/12/30 07:14:34;;;;;;;4.10;0.90;;;12.30;99.90;;;;;;5069024;28;20767;-68
2021/12/30 07:17:00;;;;;;;1.60;0.90;;;12.30;99.90;;;;;;5069593;28;20117;-66
2021/12/30 07:19:25;;;;;;;3.33;1.08;;;12.30;99.90;;;;;;5068781;28;20031;-65
2021/12/30 07:21:51;;;;;;;3.50;1.00;;;12.30;99.90;;;;;;5069811;28;20108;-65
2021/12/30 07:24:18;;;;;;;3.33;0.90;;;12.30;99.90;;;;;;5069663;28;20381;-65
2021/12/30 07:26:43;;;;;;;7.32;1.50;;;12.30;99.90;;;;;;5069135;28;20036;-67
2021/12/30 07:29:09;;;;;;;5.28;1.17;;;12.30;99.90;;;;;;5069541;28;20061;-68
2021/12/30 07:31:34;;;;;;;4.88;1.25;;;12.30;99.90;;;;;;5069131;28;20135;-65
2021/12/30 07:34:00;;;;;;;6.88;1.98;;;12.30;99.90;;;;;;5068375;28;20103;-64
2021/12/30 07:36:26;;;;;;;5.35;1.80;;;12.30;99.90;;;;;;5069156;28;20399;-66
2021/12/30 07:38:51;;;;;;;9.10;2.50;;;12.30;99.90;;;;;;5069407;28;20056;-64
2021/12/30 07:41:18;;;;;;;8.45;2.38;;;12.30;99.90;;;;;;5069330;28;20037;-68
2021/12/30 07:43:44;;;;;;;12.27;3.30;;;12.30;99.90;;;;;;5067750;28;20040;-67
2021/12/30 07:46:11;;;;;;;11.45;3.65;;;12.30;99.90;;;;;;5069360;28;20615;-63
2021/12/30 07:48:37;;;;;;;7.70;3.22;;;12.30;99.90;;;;;;5068724;28;20032;-68
2021/12/30 07:51:03;;;;;;;9.38;3.10;;;12.30;99.90;;;;;;5067745;28;20385;-67
2021/12/30 07:53:29;;;;;;;15.32;4.20;;;12.30;99.90;;;;;;5068416;28;20063;-67
2021/12/30 07:55:54;;;;;;;15.10;3.65;;;12.30;99.90;;;;;;5066849;28;20055;-66
2021/12/30 07:58:20;;;;;;;17.95;3.08;;;12.30;99.90;;;;;;5061032;28;20048;-66
2021/12/30 08:00:45;;;;;;;10.93;3.45;;;12.40;99.90;;;;;;5068738;28;20036;-65
2021/12/30 08:03:11;;;;;;;12.80;3.08;;;12.40;99.90;;;;;;5069510;28;20048;-67
2021/12/30 08:05:37;;;;;;;7.07;2.22;;;12.40;99.90;;;;;;5066817;28;20040;-66
2021/12/30 08:08:02;;;;;;;9.48;2.97;;;12.40;99.90;;;;;;5067793;28;20032;-65
2021/12/30 08:10:29;;;;;;;13.30;2.30;;;12.40;99.90;;;;;;5063723;28;20033;-66
2021/12/30 08:12:55;;;;;;;11.20;2.83;;;12.40;99.90;;;;;;5067757;28;20052;-65
2021/12/30 08:15:22;;;;;;;12.13;2.45;;;12.40;99.90;;;;;;5058774;28;20072;-66
2021/12/30 08:17:49;;;;;;;11.35;2.38;;;12.40;99.90;;;;;;5067755;28;20123;-65
2021/12/30 08:20:17;;;;;;;10.32;2.70;;;12.40;99.90;;;;;;5068715;28;20055;-65
2021/12/30 08:22:43;;;;;;;11.18;2.45;;;12.40;99.90;;;;;;5070742;28;20033;-67
2021/12/30 08:25:11;;;;;;;14.07;3.10;;;12.40;99.90;;;;;;5072915;28;20070;-66
2021/12/30 08:27:37;;;;;;;12.68;2.80;;;12.40;99.90;;;;;;5072177;28;20036;-66
2021/12/30 08:30:06;;;;;;;18.92;2.95;;;12.50;99.90;;;;;;5072660;28;20032;-66
2021/12/30 08:32:32;;;;;;;15.65;2.72;;;12.40;99.90;;;;;;5072275;28;20127;-66
2021/12/30 08:34:58;;;;;;;19.90;3.42;;;12.50;99.90;;;;;;5072127;28;20131;-66
2021/12/30 08:37:23;;;;;;;18.00;3.55;;;12.50;99.90;;;;;;5071822;28;20067;-67
2021/12/30 08:39:49;;;;;;;16.75;2.70;;;12.50;99.90;;;;;;5071318;28;20102;-71
2021/12/30 08:42:21;;;;;;;17.67;3.50;;;12.50;99.90;;;;;;5071768;28;20123;-65
2021/12/30 08:44:48;;;;;;;19.08;3.08;;;12.50;99.90;;;;;;5072729;28;20032;-65
2021/12/30 08:47:14;;;;;;;27.88;4.90;;;12.50;99.90;;;;;;5067296;28;20225;-65
2021/12/30 08:49:45;;;;;;;13.02;3.13;;;12.50;99.90;;;;;;5070486;28;20028;-65
2021/12/30 08:52:17;;;;;;;28.15;3.70;;;12.50;99.90;;;;;;5071669;28;20060;-65
2021/12/30 08:54:44;;;;;;;21.27;3.65;;;12.50;99.90;;;;;;5071535;28;20079;-66
2021/12/30 08:57:10;;;;;;;11.70;3.33;;;12.50;99.90;;;;;;5071974;28;20064;-66
2021/12/30 08:59:36;;;;;;;20.13;3.47;;;12.60;99.90;;;;;;5071101;28;20083;-66
2021/12/30 09:02:06;;;;;;;22.23;4.35;;;12.60;99.90;;;;;;5071667;28;20028;-66
2021/12/30 09:04:32;;;;;;;17.08;4.07;;;12.60;99.90;;;;;;5071328;28;20048;-65
2021/12/30 09:06:58;;;;;;;20.08;2.50;;;12.60;99.90;;;;;;5070903;28;20036;-66
2021/12/30 09:09:24;;;;;;;20.75;3.33;;;12.60;99.90;;;;;;5069851;28;20395;-66
2021/12/30 09:11:50;;;;;;;17.67;3.53;;;12.70;99.90;;;;;;5071713;28;20024;-67
2021/12/30 09:14:16;;;;;;;25.00;3.08;;;12.70;99.90;;;;;;5071524;28;20028;-67
2021/12/30 09:16:43;;;;;;;20.88;3.53;;;12.70;99.90;;;;;;5071250;28;20048;-67
2021/12/30 09:19:09;;;;;;;20.63;3.53;;;12.70;99.90;;;;;;5071539;28;20484;-65
2021/12/30 09:21:39;;;;;;;21.42;2.90;;;12.70;99.90;;;;;;5070811;28;20070;-66
2021/12/30 09:24:06;;;;;;;11.35;2.22;;;12.70;99.90;;;;;;5072186;28;20080;-66
2021/12/30 09:26:32;;;;;;;18.77;2.45;;;12.70;99.90;;;;;;5071145;28;20538;-66
2021/12/30 09:28:57;;;;;;;14.13;2.40;;;12.90;99.90;;;;;;5070563;28;20028;-66
2021/12/30 09:31:23;;;;;;;12.55;2.33;;;12.90;99.90;;;;;;5068965;28;20029;-66
2021/12/30 09:33:49;;;;;;;15.32;2.72;;;12.90;99.90;;;;;;5068662;28;20178;-66
2021/12/30 09:36:14;;;;;;;27.50;4.18;;;12.80;99.90;;;;;;5070607;28;20033;-66
2021/12/30 09:38:40;;;;;;;19.20;3.55;;;12.90;99.90;;;;;;5070881;28;20035;-66
2021/12/30 09:41:05;;;;;;;11.98;2.17;;;12.90;99.90;;;;;;5069182;28;20128;-66
2021/12/30 09:43:31;;;;;;;12.30;2.42;;;13.00;99.90;;;;;;5070317;28;20029;-65
2021/12/30 09:45:57;;;;;;;18.83;3.10;;;13.00;99.90;;;;;;5075460;28;20492;-65
2021/12/30 09:48:23;;;;;;;13.77;2.25;;;13.00;99.90;;;;;;5071176;28;20150;-65
2021/12/30 09:50:51;;;;;;;16.25;3.15;;;13.10;99.90;;;;;;5071330;28;20028;-66
2021/12/30 09:53:25;;;;;;;21.85;3.72;;;13.10;99.90;;;;;;5067374;28;20036;-66
2021/12/30 09:55:55;;;;;;;13.02;2.55;;;13.10;99.90;;;;;;5068319;28;20047;-65
2021/12/30 09:58:20;;;;;;;28.48;3.83;;;13.10;99.90;;;;;;5070856;28;20030;-66
2021/12/30 10:00:48;;;;;;;23.75;3.33;;;13.10;99.90;;;;;;5069766;28;20451;-66
2021/12/30 10:03:14;;;;;;;19.20;3.75;;;13.10;99.90;;;;;;5070033;28;20048;-66
2021/12/30 10:05:41;;;;;;;15.40;2.80;;;13.10;99.90;;;;;;5070978;28;20025;-66
2021/12/30 10:08:20;;;;;;;16.63;2.67;;;13.10;99.90;;;;;;5071020;28;20484;-66
2021/12/30 10:10:48;;;;;;;12.15;2.58;;;13.00;99.90;;;;;;5066911;28;20047;-66
2021/12/30 10:13:17;;;;;;;13.95;3.00;;;13.10;99.90;;;;;;5067311;28;20562;-66
2021/12/30 10:15:48;;;;;;;12.45;2.15;;;13.10;99.90;;;;;;5071063;28;20041;-66
2021/12/30 10:18:14;;;;;;;15.75;2.30;;;13.10;99.90;;;;;;5066576;28;20529;-66
2021/12/30 10:20:42;;;;;;;13.35;2.55;;;13.10;99.90;;;;;;5070285;28;20131;-66
2021/12/30 10:23:20;;;;;;;15.38;2.58;;;13.10;99.90;;;;;;5070815;28;20036;-66
2021/12/30 10:25:51;;;;;;;17.55;2.63;;;13.10;99.90;;;;;;5066894;28;20446;-66
2021/12/30 10:28:36;;;;;;;16.35;2.53;;;13.10;99.90;;;;;;5062681;28;20105;-66
2021/12/30 10:31:15;;;;;;;9.45;2.13;;;13.10;99.90;;;;;;5069629;28;20032;-66
2021/12/30 10:33:53;;;;;;;12.95;1.70;;;13.10;99.90;;;;;;5067486;28;20089;-66
2021/12/30 10:36:26;;;;;;;7.03;1.88;;;13.10;99.90;;;;;;5066067;28;20028;-66
2021/12/30 10:38:53;;;;;;;17.85;3.03;;;13.20;99.90;;;;;;5064297;28;20044;-66
2021/12/30 10:41:24;;;;;;;9.93;2.08;;;13.20;99.90;;;;;;5067707;28;20056;-69
2021/12/30 10:43:55;;;;;;;15.20;2.15;;;13.20;99.90;;;;;;5064600;28;20028;-66
2021/12/30 10:46:28;;;;;;;14.55;3.67;;;13.20;99.90;;;;;;5069333;28;20119;-65
2021/12/30 10:49:06;;;;;;;11.07;2.25;;;13.20;99.90;;;;;;5069814;28;20028;-65
2021/12/30 10:51:43;;;;;;;10.80;2.55;;;13.20;99.90;;;;;;5069244;28;20093;-67
2021/12/30 10:54:18;;;;;;;15.75;2.10;;;13.10;99.90;;;;;;5069457;28;20047;-66
2021/12/30 10:56:47;;;;;;;15.73;2.35;;;13.10;99.90;;;;;;5065927;28;20044;-68
2021/12/30 10:59:20;;;;;;;10.70;1.95;;;13.10;99.90;;;;;;5065878;28;20461;-66
2021/12/30 11:01:51;;;;;;;11.98;2.75;;;13.10;99.90;;;;;;5064622;28;20035;-65
2021/12/30 11:04:18;;;;;;;7.05;1.48;;;13.10;99.90;;;;;;5066645;28;20051;-66
2021/12/30 11:06:44;;;;;;;12.98;2.33;;;13.10;99.90;;;;;;5069926;28;20124;-66
2021/12/30 11:09:19;;;;;;;15.52;2.83;;;13.00;99.90;;;;;;5070036;28;20044;-65
2021/12/30 11:11:48;;;;;;;13.02;3.25;;;13.00;99.90;;;;;;5066215;28;20057;-66
2021/12/30 11:14:23;;;;;;;9.52;2.08;;;12.90;99.90;;;;;;5066232;28;20040;-66
2021/12/30 11:17:07;;;;;;;11.75;2.35;;;13.00;99.90;;;;;;5067533;28;20400;-66
2021/12/30 11:19:40;;;;;;;13.05;2.67;;;12.90;99.90;;;;;;5069532;28;20032;-66
2021/12/30 11:22:12;;;;;;;12.93;2.08;;;12.90;99.90;;;;;;5068351;28;20051;-67
2021/12/30 11:24:40;;;;;;;11.52;2.10;;;13.00;99.90;;;;;;5069429;28;20054;-65
2021/12/30 11:27:08;;;;;;;10.40;1.88;;;12.90;99.90;;;;;;5069565;28;20058;-66
2021/12/30 11:29:36;;;;;;;10.68;2.53;;;12.90;99.90;;;;;;5068159;28;20090;-68
2021/12/30 11:32:04;;;;;;;15.88;2.33;;;12.90;99.90;;;;;;5069725;28;20041;-66
2021/12/30 11:34:29;;;;;;;17.38;3.08;;;12.80;99.90;;;;;;5068055;28;20068;-66
2021/12/30 11:36:55;;;;;;;12.23;2.08;;;12.80;99.90;;;;;;5070103;28;20060;-66
2021/12/30 11:39:24;;;;;;;11.60;2.63;;;12.80;99.90;;;;;;5068697;28;20032;-66
2021/12/30 11:42:02;;;;;;;11.30;1.90;;;12.90;99.90;;;;;;5069259;28;20559;-66
2021/12/30 11:44:38;;;;;;;11.82;2.10;;;12.80;99.90;;;;;;5064848;28;20085;-66
2021/12/30 11:47:05;;;;;;;8.82;1.83;;;12.80;99.90;;;;;;5069170;28;20040;-65
2021/12/30 11:49:51;;;;;;;15.90;3.60;;;12.80;99.90;;;;;;5069003;28;20119;-66
2021/12/30 11:52:49;;;;;;;21.33;2.33;;;12.90;99.90;;;;;;5066910;28;20056;-66
2021/12/30 11:55:43;;;;;;;7.28;1.95;;;12.90;99.90;;;;;;5064917;28;20037;-65
2021/12/30 12:01:01;;;;;;;15.20;2.40;;;12.90;99.90;;;;;;5071451;28;20037;-66
2021/12/30 12:03:35;;;;;;;11.13;2.13;;;12.90;99.90;;;;;;5073154;28;20166;-65
2021/12/30 12:06:03;;;;;;;8.40;2.30;;;12.90;99.90;;;;;;5072742;28;20484;-66
2021/12/30 12:08:41;;;;;;;13.75;2.33;;;13.00;99.90;;;;;;5073713;28;20177;-64
2021/12/30 12:11:11;;;;;;;10.73;2.30;;;13.00;99.90;;;;;;5068949;28;20049;-66
2021/12/30 12:13:37;;;;;;;10.35;2.25;;;13.10;99.90;;;;;;5072142;28;20028;-66
2021/12/30 12:16:04;;;;;;;14.40;2.00;;;13.10;99.90;;;;;;5073833;28;20032;-66
2021/12/30 12:18:31;;;;;;;10.60;2.20;;;13.20;99.90;;;;;;5070376;28;20039;-66
2021/12/30 12:21:03;;;;;;;8.50;2.63;;;13.30;99.90;;;;;;5073818;28;20036;-67
2021/12/30 12:23:30;;;;;;;15.23;2.63;;;13.30;99.90;;;;;;5072221;28;20029;-66
2021/12/30 12:26:08;;;;;;;9.30;1.38;;;13.30;99.90;;;;;;5073618;28;20028;-66
2021/12/30 12:28:34;;;;;;;9.13;1.65;;;13.30;99.90;;;;;;5073257;28;20040;-66
2021/12/30 12:31:00;;;;;;;9.75;3.05;;;13.40;99.90;;;;;;5069310;28;20032;-66
2021/12/30 12:33:33;;;;;;;4.85;1.80;;;13.40;99.90;;;;;;5069764;28;20033;-68
2021/12/30 12:36:01;;;;;;;10.40;2.17;;;13.40;99.90;;;;;;5071517;28;20039;-66
2021/12/30 12:38:38;;;;;;;10.48;2.15;;;13.40;99.90;;;;;;5070945;28;20028;-66
2021/12/30 12:41:25;;;;;;;5.38;1.63;;;13.30;99.90;;;;;;5071495;28;20035;-67
2021/12/30 12:43:55;;;;;;;12.80;1.83;;;13.30;99.90;;;;;;5067087;28;20032;-66